Time;durP1;ratioP1;P1;durP2;ratioP2;P2;SDS_P1;SDS_P2;PMS_P1;PMS_P2;Temp;Humidity;BMP_temperature;BMP_pressure;BME280_temperature;BME280_humidity;BME280_pressure;Samples;Min_cycle;Max_cycle;Signal;HPM_P1;HPM_P2
2023/09/12 00:00:00;;;;;;;11.67;10.43;;;;;;;15.81;81.97;100599.09;5046009;28;20216;-72
2023/09/12 00:02:26;;;;;;;14.17;10.80;;;;;;;15.78;81.82;100595.25;5040227;28;20231;-72
2023/09/12 00:04:52;;;;;;;14.03;9.90;;;;;;;15.76;81.77;100592.19;5044151;28;20212;-73
2023/09/12 00:07:19;;;;;;;13.10;10.23;;;;;;;15.75;82.15;100598.66;5042947;28;20227;-74
2023/09/12 00:09:45;;;;;;;13.20;10.13;;;;;;;15.74;82.54;100597.09;5043399;28;21546;-73
2023/09/12 00:12:15;;;;;;;13.00;10.60;;;;;;;15.74;82.21;100601.69;5043207;28;20206;-72
2023/09/12 00:14:41;;;;;;;13.07;10.80;;;;;;;15.73;82.67;100600.91;5040421;28;20696;-72
2023/09/12 00:17:09;;;;;;;12.87;10.43;;;;;;;15.71;82.66;100595.16;5045312;28;20398;-72
2023/09/12 00:19:36;;;;;;;11.43;10.10;;;;;;;15.70;82.96;100598.19;5043688;28;20219;-72
2023/09/12 00:22:03;;;;;;;16.10;10.03;;;;;;;15.66;82.25;100598.13;5042593;28;20219;-72
2023/09/12 00:24:29;;;;;;;13.63;11.20;;;;;;;15.65;82.29;100601.16;5040346;28;20356;-73
2023/09/12 00:26:56;;;;;;;12.53;10.73;;;;;;;15.61;82.60;100595.78;5038351;28;20203;-73
2023/09/12 00:29:22;;;;;;;14.07;10.20;;;;;;;15.60;82.72;100594.25;5043970;28;20257;-72
2023/09/12 00:31:48;;;;;;;13.13;10.40;;;;;;;15.57;82.56;100597.63;5041806;28;20213;-72
2023/09/12 00:34:18;;;;;;;14.87;9.97;;;;;;;15.56;82.36;100596.09;5023527;28;20230;-73
2023/09/12 00:36:44;;;;;;;13.20;10.40;;;;;;;15.55;83.01;100597.22;5042224;28;20221;-72
2023/09/12 00:39:11;;;;;;;13.90;10.53;;;;;;;15.52;82.94;100595.25;5026728;28;20823;-72
2023/09/12 00:41:37;;;;;;;13.07;10.03;;;;;;;15.51;83.06;100593.72;5022316;28;20210;-73
2023/09/12 00:44:04;;;;;;;14.80;10.17;;;;;;;15.48;82.91;100593.69;5023064;28;20465;-72
2023/09/12 00:46:30;;;;;;;14.13;10.67;;;;;;;15.45;83.11;100595.16;5025699;28;20201;-72
2023/09/12 00:48:59;;;;;;;13.07;10.53;;;;;;;15.44;83.37;100596.28;5022463;28;20725;-72
2023/09/12 00:51:29;;;;;;;12.77;10.47;;;;;;;15.41;83.26;100602.31;5045798;28;20374;-73
2023/09/12 00:53:57;;;;;;;13.57;10.43;;;;;;;15.38;82.78;100600.34;5022291;28;20220;-73
2023/09/12 00:56:24;;;;;;;14.00;10.67;;;;;;;15.38;83.19;100596.94;5026849;28;20221;-73
2023/09/12 00:58:51;;;;;;;12.80;10.93;;;;;;;15.36;83.14;100599.19;5044331;28;20238;-72
2023/09/12 01:01:19;;;;;;;14.53;10.47;;;;;;;15.33;83.71;100592.69;5025633;28;20750;-72
2023/09/12 01:03:45;;;;;;;12.87;10.37;;;;;;;15.31;83.61;100602.13;5042659;28;20911;-73
2023/09/12 01:06:11;;;;;;;13.57;10.60;;;;;;;15.27;83.04;100604.72;5041986;28;20522;-72
2023/09/12 01:08:39;;;;;;;12.27;10.53;;;;;;;15.26;83.61;100597.84;5042127;28;20236;-72
2023/09/12 01:11:06;;;;;;;13.50;9.93;;;;;;;15.24;84.02;100600.13;5039709;28;20224;-72
2023/09/12 01:13:32;;;;;;;11.20;10.00;;;;;;;15.23;83.70;100600.47;5043581;28;20225;-73
2023/09/12 01:15:59;;;;;;;13.27;10.97;;;;;;;15.21;83.69;100602.72;5025780;28;21953;-72
2023/09/12 01:18:25;;;;;;;13.67;10.40;;;;;;;15.20;83.25;100598.50;5044219;28;20834;-72
2023/09/12 01:21:38;;;;;;;13.73;11.07;;;;;;;15.22;84.68;100597.03;5042056;28;20683;-72
2023/09/12 01:24:26;;;;;;;14.07;10.47;;;;;;;15.20;84.64;100601.16;4957153;28;20409;-72
2023/09/12 01:27:02;;;;;;;12.07;10.37;;;;;;;15.19;84.33;100596.97;5024488;28;20376;-72
2023/09/12 01:29:31;;;;;;;12.90;10.87;;;;;;;15.19;84.48;100600.41;5043263;28;20905;-72
2023/09/12 01:31:59;;;;;;;12.30;10.30;;;;;;;15.17;84.17;100596.56;5023742;28;20218;-73
2023/09/12 01:34:25;;;;;;;12.63;10.53;;;;;;;15.15;84.20;100601.47;5021564;28;20437;-74
2023/09/12 01:36:52;;;;;;;13.73;10.10;;;;;;;15.15;84.05;100604.91;5021360;28;20537;-75
2023/09/12 01:39:18;;;;;;;12.33;10.50;;;;;;;15.16;83.92;100605.69;5044752;28;20294;-75
2023/09/12 01:41:48;;;;;;;12.83;10.40;;;;;;;15.15;84.76;100596.91;5024699;28;20210;-75
2023/09/12 01:44:15;;;;;;;13.93;11.50;;;;;;;15.14;84.52;100600.72;5039989;28;20688;-75
2023/09/12 01:46:44;;;;;;;15.60;11.80;;;;;;;15.13;84.31;100601.84;5018949;28;20206;-74
2023/09/12 01:49:13;;;;;;;13.73;10.37;;;;;;;15.13;84.22;100604.50;5043663;28;20711;-73
2023/09/12 01:51:40;;;;;;;12.63;10.30;;;;;;;15.13;84.48;100604.50;5025538;28;20210;-74
2023/09/12 01:54:07;;;;;;;15.43;10.40;;;;;;;15.12;84.48;100610.16;5024823;28;20206;-74
2023/09/12 01:56:34;;;;;;;12.00;10.50;;;;;;;15.13;84.75;100609.81;5027393;28;20547;-74
2023/09/12 01:59:01;;;;;;;13.57;10.93;;;;;;;15.11;84.30;100598.00;5028421;28;21710;-75
2023/09/12 02:01:27;;;;;;;12.83;10.53;;;;;;;15.10;84.80;100597.22;5028021;28;20232;-75
2023/09/12 02:03:55;;;;;;;17.13;10.90;;;;;;;15.09;84.35;100594.91;5043540;28;20209;-74
2023/09/12 02:06:21;;;;;;;12.77;10.57;;;;;;;15.09;84.25;100597.56;5030071;28;20289;-74
2023/09/12 02:08:48;;;;;;;14.87;11.03;;;;;;;15.07;84.13;100597.16;5044880;28;20232;-74
2023/09/12 02:11:14;;;;;;;13.67;10.60;;;;;;;15.05;84.53;100599.41;5024004;28;20210;-74
2023/09/12 02:13:40;;;;;;;14.53;10.90;;;;;;;15.05;84.02;100602.81;5025134;28;20213;-74
2023/09/12 02:16:07;;;;;;;12.47;9.90;;;;;;;15.05;84.34;100599.41;5045349;28;22603;-75
2023/09/12 02:18:34;;;;;;;14.83;10.93;;;;;;;15.03;84.15;100602.41;5027976;28;20225;-75
2023/09/12 02:21:01;;;;;;;14.17;10.57;;;;;;;15.02;84.35;100600.09;5044133;28;20552;-74
2023/09/12 02:23:28;;;;;;;13.97;10.77;;;;;;;15.00;84.68;100605.78;5044616;28;20211;-73
2023/09/12 02:25:54;;;;;;;14.50;10.87;;;;;;;15.01;84.45;100601.25;5024846;28;20211;-73
2023/09/12 02:28:20;;;;;;;15.23;11.33;;;;;;;14.99;84.56;100612.22;5044875;28;20229;-73
2023/09/12 02:30:47;;;;;;;12.20;10.27;;;;;;;14.98;84.67;100605.38;5044498;28;20693;-73
2023/09/12 02:33:13;;;;;;;13.97;10.63;;;;;;;14.96;85.03;100602.28;5024120;28;20228;-73
2023/09/12 02:35:40;;;;;;;13.13;11.47;;;;;;;14.94;84.71;100607.19;5045348;28;20206;-73
2023/09/12 02:38:07;;;;;;;13.93;10.97;;;;;;;14.94;85.19;100606.41;5041724;28;20225;-74
2023/09/12 02:40:34;;;;;;;14.73;10.70;;;;;;;14.91;84.28;100604.47;5027585;28;20210;-73
2023/09/12 02:43:00;;;;;;;15.30;10.70;;;;;;;14.90;84.97;100610.91;5024884;28;20244;-73
2023/09/12 02:45:26;;;;;;;12.87;10.87;;;;;;;14.86;84.88;100610.84;5027098;28;20216;-73
2023/09/12 02:47:53;;;;;;;11.57;9.80;;;;;;;14.85;85.45;100608.56;5026332;28;20225;-74
2023/09/12 02:50:19;;;;;;;13.30;10.43;;;;;;;14.84;85.35;100607.00;5042182;28;20213;-73
2023/09/12 02:52:46;;;;;;;12.70;10.60;;;;;;;14.81;85.33;100605.81;5023517;28;21868;-73
2023/09/12 02:55:14;;;;;;;14.93;10.73;;;;;;;14.78;85.40;100603.88;5044586;28;20729;-73
2023/09/12 03:00:09;;;;;;;16.90;10.70;;;;;;;14.76;85.34;100600.78;5006973;28;20240;-76
2023/09/12 03:02:35;;;;;;;13.57;11.77;;;;;;;14.74;85.56;100603.03;5001492;28;20303;-76
2023/09/12 03:05:02;;;;;;;14.00;10.93;;;;;;;14.72;85.59;100593.88;5016792;28;20324;-77
2023/09/12 03:07:30;;;;;;;14.10;10.83;;;;;;;14.69;85.91;100600.66;4998517;28;20214;-76
2023/09/12 03:09:56;;;;;;;11.97;10.50;;;;;;;14.66;85.46;100597.94;5001523;28;21448;-76
2023/09/12 03:12:24;;;;;;;16.43;10.83;;;;;;;14.63;85.97;100603.94;5017807;28;20224;-76
2023/09/12 03:14:51;;;;;;;14.77;10.60;;;;;;;14.62;85.96;100597.09;5016679;28;20203;-76
2023/09/12 03:17:18;;;;;;;14.70;11.33;;;;;;;14.60;85.86;100605.41;5002828;28;20218;-76
2023/09/12 03:19:44;;;;;;;14.13;11.17;;;;;;;14.57;85.77;100600.81;5000995;28;20316;-77
2023/09/12 03:22:11;;;;;;;12.90;10.90;;;;;;;14.54;85.49;100593.53;4999749;28;20872;-77
2023/09/12 03:24:37;;;;;;;14.07;11.53;;;;;;;14.54;85.88;100590.88;5000505;28;20296;-76
2023/09/12 03:27:05;;;;;;;14.83;11.80;;;;;;;14.54;86.35;100590.88;5024876;28;20231;-77
2023/09/12 03:29:33;;;;;;;13.27;11.10;;;;;;;14.51;85.98;100591.59;5002087;28;20251;-77
2023/09/12 03:31:59;;;;;;;17.13;11.50;;;;;;;14.50;86.16;100587.38;5001474;28;20242;-76
2023/09/12 03:34:26;;;;;;;15.20;11.43;;;;;;;14.50;86.37;100597.25;5001272;28;20612;-77
2023/09/12 03:36:52;;;;;;;15.13;12.23;;;;;;;14.49;86.38;100595.72;5017606;28;20243;-77
2023/09/12 03:39:19;;;;;;;14.67;12.20;;;;;;;14.47;86.15;100596.06;4999620;28;20231;-77
2023/09/12 03:41:45;;;;;;;14.40;11.73;;;;;;;14.47;86.32;100590.75;5016869;28;20204;-77
2023/09/12 03:44:12;;;;;;;13.83;11.23;;;;;;;14.45;86.40;100594.88;5023271;28;20243;-77
2023/09/12 03:46:40;;;;;;;17.07;12.27;;;;;;;14.43;86.37;100589.91;5001157;28;20281;-76
2023/09/12 03:49:07;;;;;;;16.10;10.97;;;;;;;14.44;86.61;100588.03;4999433;28;20215;-77
2023/09/12 03:51:34;;;;;;;15.10;11.40;;;;;;;14.43;86.58;100591.81;5000982;28;20326;-76
2023/09/12 03:54:01;;;;;;;16.27;12.23;;;;;;;14.42;86.09;100593.69;5003061;28;20236;-76
2023/09/12 03:56:27;;;;;;;14.87;10.70;;;;;;;14.42;86.42;100595.56;5003782;28;20201;-77
2023/09/12 03:58:57;;;;;;;12.30;10.80;;;;;;;14.40;85.98;100593.28;5016218;28;20215;-77
2023/09/12 04:01:24;;;;;;;13.20;10.17;;;;;;;14.37;86.33;100593.97;5001460;28;20277;-76
2023/09/12 04:03:52;;;;;;;13.20;10.63;;;;;;;14.35;86.23;100592.78;4998639;28;21700;-77
2023/09/12 04:06:19;;;;;;;12.37;10.33;;;;;;;14.32;86.11;100594.25;5002049;28;20621;-77
2023/09/12 04:08:45;;;;;;;14.80;11.10;;;;;;;14.29;86.49;100591.53;4998259;28;20203;-76
2023/09/12 04:11:12;;;;;;;12.63;10.97;;;;;;;14.29;86.21;100597.59;5002548;28;20321;-76
2023/09/12 04:13:38;;;;;;;12.77;10.47;;;;;;;14.29;86.76;100597.59;5016895;28;20286;-77
2023/09/12 04:16:05;;;;;;;11.67;10.17;;;;;;;14.27;86.94;100601.72;4999867;28;20231;-76
2023/09/12 04:18:31;;;;;;;12.20;10.23;;;;;;;14.26;86.51;100598.31;4998813;28;20212;-76
2023/09/12 04:20:59;;;;;;;12.33;10.07;;;;;;;14.25;86.58;100602.09;4999961;28;21017;-76
2023/09/12 04:23:26;;;;;;;12.40;10.20;;;;;;;14.26;86.64;100595.66;4999798;28;20211;-77
2023/09/12 04:25:53;;;;;;;12.83;10.87;;;;;;;14.26;87.19;100592.22;4999129;28;20208;-76
2023/09/12 04:28:20;;;;;;;14.07;10.47;;;;;;;14.24;87.38;100592.56;4998549;28;20266;-77
2023/09/12 04:30:47;;;;;;;12.27;10.33;;;;;;;14.23;87.14;100596.31;5001159;28;20241;-77
2023/09/12 04:33:14;;;;;;;13.13;10.67;;;;;;;14.24;86.75;100600.53;5022101;28;20239;-77
2023/09/12 04:35:40;;;;;;;12.13;9.97;;;;;;;14.24;87.46;100597.13;4996909;28;20195;-77
2023/09/12 04:38:08;;;;;;;13.27;10.10;;;;;;;14.23;86.83;100598.22;4997151;28;20235;-77
2023/09/12 04:40:35;;;;;;;15.07;9.80;;;;;;;14.23;87.40;100595.56;4999775;28;20223;-76
2023/09/12 04:43:01;;;;;;;15.80;10.77;;;;;;;14.23;87.02;100598.97;5001398;28;20227;-77
2023/09/12 04:45:29;;;;;;;11.07;9.90;;;;;;;14.27;86.65;100596.41;4998583;28;20753;-77
2023/09/12 04:47:55;;;;;;;12.93;9.80;;;;;;;14.27;87.21;100589.22;4998832;28;20199;-77
2023/09/12 04:50:22;;;;;;;14.67;11.87;;;;;;;14.33;87.75;100597.69;4998749;28;20238;-77
2023/09/12 04:52:49;;;;;;;12.63;10.30;;;;;;;14.33;87.38;100595.78;4997207;28;20200;-76
2023/09/12 04:55:17;;;;;;;13.93;10.67;;;;;;;14.35;87.34;100596.22;4998013;28;20212;-77
2023/09/12 04:57:43;;;;;;;12.30;11.00;;;;;;;14.39;87.96;100588.31;5009614;28;21183;-77
2023/09/12 05:00:11;;;;;;;16.93;10.93;;;;;;;14.39;87.76;100591.72;4997739;28;20234;-76
2023/09/12 05:02:38;;;;;;;18.43;11.53;;;;;;;14.44;87.35;100593.34;5006766;28;20334;-76
2023/09/12 05:05:05;;;;;;;13.00;10.87;;;;;;;14.46;87.96;100593.75;4999334;28;20203;-77
2023/09/12 05:07:32;;;;;;;15.13;11.60;;;;;;;14.49;87.10;100596.47;5001692;28;20694;-77
2023/09/12 05:09:58;;;;;;;13.17;11.40;;;;;;;14.52;87.44;100605.63;5016337;28;20228;-77
2023/09/12 05:12:26;;;;;;;14.73;12.07;;;;;;;14.56;87.05;100604.59;5002015;28;20674;-76
2023/09/12 05:14:53;;;;;;;15.97;11.33;;;;;;;14.65;87.52;100601.72;4998381;28;21055;-77
2023/09/12 05:17:19;;;;;;;16.03;12.77;;;;;;;14.69;87.11;100611.28;5013635;28;20281;-77
2023/09/12 05:19:46;;;;;;;17.73;10.90;;;;;;;14.73;87.25;100614.78;4998467;28;20716;-76
2023/09/12 05:22:12;;;;;;;17.77;11.87;;;;;;;14.78;87.42;100616.38;5000960;28;20211;-77
2023/09/12 05:24:39;;;;;;;19.07;13.03;;;;;;;14.84;87.30;100622.94;5000172;28;20671;-76
2023/09/12 05:27:06;;;;;;;18.53;13.10;;;;;;;14.89;87.13;100625.31;5021991;28;20212;-75
2023/09/12 05:29:34;;;;;;;13.63;11.83;;;;;;;14.94;86.63;100633.78;5012541;28;20315;-75
2023/09/12 05:32:00;;;;;;;14.37;12.47;;;;;;;14.99;86.56;100630.06;5015577;28;20246;-75
2023/09/12 05:34:27;;;;;;;16.17;12.40;;;;;;;15.03;86.78;100626.34;5018225;28;20267;-75
2023/09/12 05:36:53;;;;;;;18.40;12.20;;;;;;;15.09;86.61;100629.47;5018043;28;20219;-75
2023/09/12 05:39:20;;;;;;;21.13;12.33;;;;;;;15.13;86.01;100635.63;5036938;28;20475;-75
2023/09/12 05:41:46;;;;;;;17.50;12.53;;;;;;;15.19;86.54;100629.69;5022951;28;20208;-75
2023/09/12 05:44:17;;;;;;;14.23;11.83;;;;;;;15.25;86.21;100630.13;5021970;28;20206;-76
2023/09/12 05:46:45;;;;;;;18.20;12.87;;;;;;;15.27;85.89;100631.31;5019665;28;20250;-75
2023/09/12 05:49:12;;;;;;;19.23;13.20;;;;;;;15.34;86.05;100628.03;5005754;28;21139;-75
2023/09/12 05:51:38;;;;;;;17.87;12.87;;;;;;;15.40;85.74;100631.94;5003805;28;20680;-75
2023/09/12 05:54:05;;;;;;;17.20;12.10;;;;;;;15.47;85.75;100635.47;5014093;28;20793;-74
2023/09/12 05:56:32;;;;;;;14.67;12.50;;;;;;;15.51;85.91;100636.31;5023589;28;20247;-75
2023/09/12 05:58:58;;;;;;;18.33;12.93;;;;;;;15.58;86.15;100636.41;5000676;28;20230;-75
2023/09/12 06:01:25;;;;;;;18.03;13.17;;;;;;;15.64;86.34;100645.66;5016140;28;20238;-75
2023/09/12 06:03:53;;;;;;;23.10;12.93;;;;;;;15.71;86.07;100635.09;4997986;28;20197;-75
2023/09/12 06:06:20;;;;;;;16.20;12.87;;;;;;;15.78;86.05;100635.19;5014809;28;20223;-75
2023/09/12 06:08:46;;;;;;;18.43;14.43;;;;;;;15.83;85.91;100648.22;5018105;28;20285;-75
2023/09/12 06:11:13;;;;;;;20.77;14.10;;;;;;;15.92;85.85;100647.94;5017128;28;20227;-75
2023/09/12 06:13:39;;;;;;;17.70;14.57;;;;;;;16.00;85.58;100649.59;5016350;28;20218;-75
2023/09/12 06:16:06;;;;;;;20.00;15.47;;;;;;;16.06;85.82;100640.94;5014078;28;20210;-75
2023/09/12 06:18:34;;;;;;;18.97;14.17;;;;;;;16.15;85.42;100638.00;5015468;28;20229;-75
2023/09/12 06:21:03;;;;;;;26.67;14.87;;;;;;;16.23;85.50;100636.97;5013633;28;20223;-75
2023/09/12 06:23:30;;;;;;;23.87;17.30;;;;;;;16.31;85.33;100636.69;4998459;28;20290;-75
2023/09/12 06:25:57;;;;;;;20.40;14.90;;;;;;;16.41;85.35;100632.66;4998808;28;20211;-75
2023/09/12 06:28:26;;;;;;;21.27;16.33;;;;;;;16.49;84.92;100635.06;5017760;28;20283;-75
2023/09/12 06:30:53;;;;;;;26.57;16.93;;;;;;;16.59;84.78;100638.97;5013223;28;20219;-75
2023/09/12 06:33:19;;;;;;;19.03;16.40;;;;;;;16.67;85.08;100644.00;5015293;28;20279;-75
2023/09/12 06:35:49;;;;;;;29.27;17.20;;;;;;;16.77;84.82;100642.59;5010082;28;20213;-75
2023/09/12 06:38:16;;;;;;;20.13;16.70;;;;;;;16.88;85.32;100641.56;5009761;28;20223;-76
2023/09/12 06:40:43;;;;;;;25.33;17.10;;;;;;;16.97;84.67;100644.72;5010949;28;20684;-75
2023/09/12 06:43:09;;;;;;;19.87;15.97;;;;;;;17.07;84.16;100646.72;4997820;28;20214;-75
2023/09/12 06:45:37;;;;;;;22.07;15.93;;;;;;;17.17;83.77;100647.94;5010489;28;20207;-75
2023/09/12 06:48:04;;;;;;;18.33;15.43;;;;;;;17.28;83.45;100646.91;5008897;28;20200;-75
2023/09/12 06:50:31;;;;;;;22.67;16.10;;;;;;;17.39;83.25;100652.41;5007950;28;20220;-76
2023/09/12 06:52:57;;;;;;;22.20;15.73;;;;;;;17.48;83.22;100645.59;5008982;28;20769;-75
2023/09/12 06:55:25;;;;;;;18.00;15.00;;;;;;;17.58;82.77;100654.81;5009835;28;20203;-75
2023/09/12 06:57:51;;;;;;;18.63;15.20;;;;;;;17.68;82.24;100660.25;5006921;28;20426;-75
2023/09/12 07:00:18;;;;;;;18.90;13.83;;;;;;;17.78;81.91;100661.47;5007645;28;20228;-75
2023/09/12 07:02:44;;;;;;;18.03;13.93;;;;;;;17.87;81.60;100654.69;5007134;28;20200;-74
2023/09/12 07:05:11;;;;;;;19.07;13.80;;;;;;;17.98;80.79;100658.19;5011565;28;20330;-75
2023/09/12 07:07:37;;;;;;;14.77;12.80;;;;;;;18.09;80.38;100656.34;5011122;28;20218;-75
2023/09/12 07:10:04;;;;;;;16.20;12.50;;;;;;;18.20;79.94;100661.72;4996443;28;20220;-75
2023/09/12 07:12:32;;;;;;;16.90;12.73;;;;;;;18.29;79.43;100662.16;5010367;28;20319;-75
2023/09/12 07:14:59;;;;;;;16.00;12.20;;;;;;;18.40;79.48;100658.44;5012361;28;20222;-75
2023/09/12 07:17:28;;;;;;;16.23;11.90;;;;;;;18.52;78.52;100666.13;4990783;28;20204;-75
2023/09/12 07:19:54;;;;;;;17.73;12.57;;;;;;;18.63;77.72;100666.91;5011525;28;20827;-75
2023/09/12 07:22:21;;;;;;;14.13;11.43;;;;;;;18.74;77.06;100670.38;5006069;28;20824;-75
2023/09/12 07:24:47;;;;;;;16.83;12.37;;;;;;;18.84;76.52;100666.97;5006005;28;20197;-75
2023/09/12 07:27:13;;;;;;;14.30;11.47;;;;;;;18.96;76.25;100665.88;4993773;28;20214;-75
2023/09/12 07:29:41;;;;;;;16.40;11.70;;;;;;;19.09;74.86;100664.38;5005506;28;20234;-75
2023/09/12 07:32:11;;;;;;;14.47;10.97;;;;;;;19.19;74.96;100674.34;5004369;28;20287;-75
2023/09/12 07:34:39;;;;;;;17.07;11.00;;;;;;;19.30;74.47;100667.13;5010601;28;20211;-75
2023/09/12 07:37:05;;;;;;;14.43;11.00;;;;;;;19.40;73.77;100674.41;5011152;28;20204;-75
2023/09/12 07:39:32;;;;;;;14.00;11.37;;;;;;;19.49;72.68;100670.19;5009606;28;20304;-75
2023/09/12 07:41:58;;;;;;;12.60;10.37;;;;;;;19.60;73.27;100667.50;5008024;28;20204;-75
2023/09/12 07:44:25;;;;;;;12.30;10.60;;;;;;;19.73;71.82;100674.00;4996981;28;20793;-74
2023/09/12 07:46:52;;;;;;;14.13;9.90;;;;;;;19.82;72.64;100682.44;5012879;28;20691;-75
2023/09/12 07:49:19;;;;;;;13.47;10.83;;;;;;;19.92;72.00;100671.69;5012113;28;20303;-75
2023/09/12 07:51:45;;;;;;;10.93;9.83;;;;;;;20.02;70.90;100678.94;5011485;28;20207;-74
2023/09/12 07:54:11;;;;;;;11.80;9.83;;;;;;;20.13;70.50;100677.03;5011348;28;20206;-75
2023/09/12 07:56:38;;;;;;;12.17;9.40;;;;;;;20.24;70.07;100674.34;5012032;28;20719;-74
2023/09/12 07:59:04;;;;;;;14.03;10.47;;;;;;;20.32;70.47;100681.97;5010256;28;20232;-75
2023/09/12 08:01:30;;;;;;;12.43;10.07;;;;;;;20.43;70.62;100681.94;4996343;28;20211;-75
2023/09/12 08:03:58;;;;;;;12.60;10.17;;;;;;;20.52;70.29;100682.28;4994932;28;20721;-75
2023/09/12 08:06:25;;;;;;;11.87;9.43;;;;;;;20.61;68.35;100683.41;5011093;28;20587;-75
2023/09/12 08:08:51;;;;;;;12.47;9.60;;;;;;;20.74;67.87;100683.75;5008784;28;20679;-75
2023/09/12 08:11:18;;;;;;;12.07;9.83;;;;;;;20.83;68.38;100684.06;5011523;28;20628;-75
2023/09/12 08:13:46;;;;;;;11.93;10.23;;;;;;;20.94;67.75;100676.72;5009746;28;20283;-76
2023/09/12 08:16:13;;;;;;;11.87;9.80;;;;;;;21.07;67.47;100689.34;4993182;28;20218;-75
2023/09/12 08:18:40;;;;;;;13.90;10.00;;;;;;;21.19;67.22;100680.81;5004814;28;21171;-75
2023/09/12 08:21:08;;;;;;;11.03;9.93;;;;;;;21.28;67.53;100686.50;5006798;28;20877;-75
2023/09/12 08:23:36;;;;;;;11.30;9.70;;;;;;;21.41;66.22;100684.88;5006895;28;20205;-75
2023/09/12 08:26:02;;;;;;;13.37;10.37;;;;;;;21.52;66.70;100684.81;5007301;28;20204;-74
2023/09/12 08:28:29;;;;;;;13.87;9.73;;;;;;;21.63;66.51;100688.16;5009357;28;20215;-75
2023/09/12 08:30:55;;;;;;;11.73;9.87;;;;;;;21.73;66.11;100688.09;5008690;28;20227;-76
2023/09/12 08:33:21;;;;;;;12.83;9.33;;;;;;;21.85;66.76;100682.25;5008395;28;20207;-75
2023/09/12 08:35:48;;;;;;;12.53;9.63;;;;;;;21.97;65.78;100680.97;5007710;28;20221;-75
2023/09/12 08:38:16;;;;;;;12.50;9.73;;;;;;;22.07;65.84;100680.09;5007268;28;20231;-75
2023/09/12 08:40:49;;;;;;;11.33;9.60;;;;;;;22.18;65.72;100686.13;5007319;28;20239;-75
2023/09/12 08:43:16;;;;;;;9.90;7.67;;;;;;;22.32;64.77;100677.91;5006044;28;20212;-75
2023/09/12 08:45:44;;;;;;;11.88;9.30;;;;;;;22.44;63.99;100680.88;5006267;28;20231;-75
2023/09/12 08:48:12;;;;;;;10.13;8.90;;;;;;;22.54;64.82;100684.59;5007951;28;20949;-76
2023/09/12 08:50:38;;;;;;;11.77;8.63;;;;;;;22.65;63.79;100680.59;5004254;28;20224;-75
2023/09/12 08:53:05;;;;;;;9.30;8.30;;;;;;;22.78;62.93;100689.69;5005444;28;20215;-75
2023/09/12 08:55:33;;;;;;;12.93;8.23;;;;;;;22.89;62.79;100676.84;5005529;28;20204;-76
2023/09/12 08:58:03;;;;;;;10.23;8.05;;;;;;;23.01;60.70;100673.56;5005194;28;20223;-75
2023/09/12 09:00:30;;;;;;;9.63;8.20;;;;;;;23.13;60.89;100669.56;5004669;28;21108;-75
2023/09/12 09:02:57;;;;;;;9.88;7.90;;;;;;;23.25;60.10;100674.41;5007624;28;20196;-75
2023/09/12 09:05:25;;;;;;;9.52;7.45;;;;;;;23.37;60.95;100668.44;5009547;28;20218;-76
2023/09/12 09:07:52;;;;;;;12.57;8.60;;;;;;;23.50;59.87;100672.84;5008905;28;20212;-75
2023/09/12 09:10:20;;;;;;;9.00;7.60;;;;;;;23.63;59.47;100675.72;5007703;28;20224;-76
2023/09/12 09:12:48;;;;;;;8.65;7.75;;;;;;;23.77;60.03;100680.88;5005064;28;20277;-75
2023/09/12 09:15:21;;;;;;;11.52;7.72;;;;;;;23.90;59.10;100681.06;5006966;28;20213;-75
2023/09/12 09:17:48;;;;;;;9.73;7.32;;;;;;;24.00;57.37;100672.81;5004002;28;20282;-74
2023/09/12 09:20:22;;;;;;;9.13;8.10;;;;;;;24.13;55.69;100678.31;5003336;28;20264;-74
2023/09/12 09:22:58;;;;;;;8.75;7.38;;;;;;;24.24;54.90;100676.94;5004802;28;20214;-75
2023/09/12 09:25:24;;;;;;;9.68;7.10;;;;;;;24.36;56.16;100673.66;5008782;28;20207;-75
2023/09/12 09:27:52;;;;;;;8.77;7.00;;;;;;;24.47;56.30;100682.28;5004783;28;20203;-76
2023/09/12 09:30:20;;;;;;;8.02;6.43;;;;;;;24.61;55.24;100671.22;5018588;28;20232;-74
2023/09/12 09:32:47;;;;;;;9.38;7.28;;;;;;;24.71;54.07;100672.19;5027781;28;20259;-75
2023/09/12 09:35:14;;;;;;;15.30;7.50;;;;;;;24.80;56.14;100673.13;5019726;28;20782;-76
2023/09/12 09:37:40;;;;;;;9.27;6.80;;;;;;;24.93;56.50;100675.94;5008842;28;20212;-76
2023/09/12 09:40:08;;;;;;;10.13;6.75;;;;;;;25.00;54.83;100664.97;5009924;28;20326;-75
2023/09/12 09:42:34;;;;;;;10.73;7.72;;;;;;;25.06;55.15;100671.38;5004345;28;20207;-75
2023/09/12 09:45:02;;;;;;;8.38;7.30;;;;;;;25.15;56.28;100682.38;5001843;28;20201;-75
2023/09/12 09:47:29;;;;;;;7.72;6.80;;;;;;;25.28;53.72;100662.41;5003306;28;20802;-76
2023/09/12 09:49:59;;;;;;;8.00;6.47;;;;;;;25.38;52.63;100668.75;5003647;28;20884;-76
2023/09/12 09:52:26;;;;;;;8.02;6.65;;;;;;;25.46;53.44;100665.44;5002611;28;20277;-75
2023/09/12 09:54:53;;;;;;;10.20;6.90;;;;;;;25.58;52.57;100656.66;4999495;28;20540;-75
2023/09/12 09:57:19;;;;;;;11.73;6.78;;;;;;;25.68;53.13;100662.97;4998416;28;20214;-76
2023/09/12 09:59:50;;;;;;;9.85;7.13;;;;;;;25.76;52.50;100659.66;5002459;28;20232;-75
2023/09/12 10:02:22;;;;;;;7.38;6.40;;;;;;;25.85;51.51;100662.50;5003663;28;20389;-75
2023/09/12 10:04:50;;;;;;;9.38;6.65;;;;;;;25.98;52.85;100659.88;5003528;28;20363;-76
2023/09/12 10:07:17;;;;;;;8.50;6.25;;;;;;;26.06;52.41;100653.84;5005830;28;20404;-75
2023/09/12 10:09:44;;;;;;;7.55;6.68;;;;;;;26.14;50.42;100660.59;5002587;28;20274;-75
2023/09/12 10:12:12;;;;;;;12.85;7.18;;;;;;;26.23;51.98;100660.75;5001867;28;21239;-75
2023/09/12 10:14:41;;;;;;;9.70;6.10;;;;;;;26.31;51.91;100658.59;5003789;28;20238;-75
2023/09/12 10:17:07;;;;;;;8.27;5.70;;;;;;;26.38;51.07;100653.75;5006811;28;20531;-75
2023/09/12 10:19:41;;;;;;;7.18;6.32;;;;;;;26.48;52.15;100662.75;5000290;28;20231;-75
2023/09/12 10:22:13;;;;;;;8.18;6.65;;;;;;;26.63;48.97;100663.88;5001415;28;20218;-75
2023/09/12 10:24:40;;;;;;;6.80;5.85;;;;;;;26.70;48.95;100659.03;4999218;28;20323;-78
2023/09/12 10:27:07;;;;;;;7.20;5.65;;;;;;;26.81;47.73;100661.41;4999551;28;21112;-77
2023/09/12 10:29:34;;;;;;;7.75;5.97;;;;;;;26.92;49.17;100662.59;5003041;28;20229;-76
2023/09/12 10:32:01;;;;;;;10.63;5.72;;;;;;;27.05;47.59;100657.19;5001232;28;20206;-76
2023/09/12 10:34:30;;;;;;;7.05;6.20;;;;;;;27.13;45.13;100648.38;4999466;28;20694;-76
2023/09/12 10:36:59;;;;;;;8.32;5.47;;;;;;;27.23;45.86;100649.25;4998881;28;20212;-74
2023/09/12 10:39:27;;;;;;;8.73;5.70;;;;;;;27.32;46.23;100652.84;4996981;28;20247;-75
2023/09/12 10:41:55;;;;;;;10.18;6.22;;;;;;;27.40;45.74;100647.94;4982147;28;20649;-75
2023/09/12 10:44:22;;;;;;;8.27;6.70;;;;;;;27.52;43.80;100655.28;4999951;28;20391;-75
2023/09/12 10:46:49;;;;;;;11.15;7.03;;;;;;;27.57;46.38;100655.50;4997127;28;20295;-75
2023/09/12 10:49:17;;;;;;;9.90;7.57;;;;;;;27.64;45.86;100654.47;4998025;28;21335;-74
2023/09/12 10:51:45;;;;;;;7.40;6.40;;;;;;;27.69;43.03;100643.06;4997950;28;20238;-74
2023/09/12 10:54:15;;;;;;;6.53;5.82;;;;;;;27.76;44.16;100648.28;4998829;28;20592;-76
2023/09/12 10:56:41;;;;;;;9.88;5.80;;;;;;;27.82;42.62;100636.41;5001535;28;20330;-75
2023/09/12 10:59:12;;;;;;;12.93;6.25;;;;;;;27.89;44.92;100644.34;4997833;28;20259;-75
2023/09/12 11:01:40;;;;;;;9.73;6.18;;;;;;;27.96;45.24;100644.06;4995968;28;20839;-75
2023/09/12 11:04:33;;;;;;;7.80;5.65;;;;;;;28.02;42.15;100636.88;4997594;28;20207;-75
2023/09/12 11:06:59;;;;;;;9.50;6.10;;;;;;;28.08;42.89;100640.53;5000309;28;20212;-75
2023/09/12 11:09:28;;;;;;;8.27;5.88;;;;;;;28.12;44.14;100638.47;4997986;28;20395;-75
2023/09/12 11:12:02;;;;;;;11.07;6.60;;;;;;;28.20;43.84;100638.97;4998156;28;20222;-75
2023/09/12 11:14:29;;;;;;;8.77;6.22;;;;;;;28.24;41.91;100631.44;4995897;28;20207;-75